createdAt,value
2023-02-11T00:01:32.865Z,22.20
2023-02-11T00:06:38.480Z,21.88
2023-02-11T00:11:42.918Z,23.58
2023-02-11T00:16:48.298Z,21.75
2023-02-11T00:21:52.439Z,23.27
2023-02-11T00:26:56.128Z,21.27
2023-02-11T00:32:05.303Z,20.67
2023-02-11T00:37:12.197Z,22.65
2023-02-11T00:42:18.948Z,22.80
2023-02-11T00:47:26.350Z,22.92
2023-02-11T00:52:30.267Z,22.50
2023-02-11T00:57:34.655Z,21.02
2023-02-11T01:02:45.763Z,20.90
2023-02-11T01:07:49.838Z,20.08
2023-02-11T01:12:53.818Z,21.20
2023-02-11T01:17:59.572Z,21.77
2023-02-11T01:23:04.591Z,20.60
2023-02-11T01:28:09.573Z,19.88
2023-02-11T01:33:15.059Z,20.85
2023-02-11T01:38:20.648Z,20.90
2023-02-11T01:43:24.804Z,21.88
2023-02-11T01:48:32.531Z,22.00
2023-02-11T01:53:57.316Z,21.75
2023-02-11T01:59:04.433Z,20.13
2023-02-11T02:04:15.792Z,22.85
2023-02-11T02:09:21.814Z,20.83
2023-02-11T02:14:26.690Z,21.52
2023-02-11T02:20:14.803Z,21.98
2023-02-11T02:25:37.229Z,21.17
2023-02-11T02:30:55.578Z,20.70
2023-02-11T02:36:07.190Z,21.08
2023-02-11T02:41:12.384Z,18.23
2023-02-11T02:46:18.122Z,19.92
2023-02-11T02:52:00.177Z,20.67
2023-02-11T02:57:10.393Z,20.05
2023-02-11T03:02:20.228Z,19.80
2023-02-11T03:07:32.164Z,21.02
2023-02-11T03:12:37.606Z,20.27
2023-02-11T03:17:42.284Z,19.40
2023-02-11T03:22:49.334Z,20.67
2023-02-11T03:27:56.166Z,19.98
2023-02-11T03:33:03.003Z,19.30
2023-02-11T03:38:11.276Z,19.45
2023-02-11T03:43:20.007Z,20.27
2023-02-11T03:48:25.141Z,19.30
2023-02-11T03:53:31.878Z,19.58
2023-02-11T03:58:35.840Z,19.45
2023-02-11T04:03:39.766Z,18.67
2023-02-11T04:08:46.794Z,16.95
2023-02-11T04:13:52.622Z,19.02
2023-02-11T04:18:59.543Z,19.20
2023-02-11T04:24:05.169Z,18.30
2023-02-11T04:29:09.413Z,19.17
2023-02-11T04:34:14.110Z,19.25
2023-02-11T04:39:19.804Z,18.38
2023-02-11T04:44:24.369Z,18.70
2023-02-11T04:49:29.771Z,18.92
2023-02-11T04:54:35.178Z,18.60
2023-02-11T04:59:40.238Z,18.92
2023-02-11T05:04:44.677Z,18.58
2023-02-11T05:09:54.261Z,19.55
2023-02-11T05:15:00.875Z,19.42
2023-02-11T05:20:12.490Z,19.35
2023-02-11T05:25:20.447Z,19.55
2023-02-11T05:30:24.603Z,19.80
2023-02-11T05:35:29.818Z,17.02
2023-02-11T05:40:34.968Z,19.15
2023-02-11T05:45:39.624Z,18.95
2023-02-11T05:50:50.464Z,19.23
2023-02-11T05:56:00.756Z,19.52
2023-02-11T06:01:05.816Z,19.50
2023-02-11T06:06:12.011Z,18.55
2023-02-11T06:11:19.467Z,18.67
2023-02-11T06:16:25.996Z,19.25
2023-02-11T06:21:43.319Z,15.93
2023-02-11T06:26:51.017Z,18.30
2023-02-11T06:31:56.958Z,19.13
2023-02-11T06:37:06.383Z,20.95
2023-02-11T06:42:12.275Z,20.95
2023-02-11T06:47:15.330Z,19.75
2023-02-11T06:52:19.010Z,18.85
2023-02-11T06:57:23.851Z,19.00
2023-02-11T07:02:29.400Z,19.92
2023-02-11T07:07:34.354Z,20.33
2023-02-11T07:12:39.448Z,20.67
2023-02-11T07:17:43.233Z,19.60
2023-02-11T07:22:46.853Z,20.67
2023-02-11T07:27:52.610Z,19.35
2023-02-11T07:32:55.752Z,19.25
2023-02-11T07:37:59.355Z,19.38
2023-02-11T07:43:04.117Z,18.67
2023-02-11T07:48:07.978Z,20.70
2023-02-11T07:53:12.087Z,19.73
2023-02-11T07:58:19.361Z,18.83
2023-02-11T08:03:22.995Z,17.52
2023-02-11T08:08:28.595Z,20.63
2023-02-11T08:13:33.776Z,19.38
2023-02-11T08:18:37.700Z,20.08
2023-02-11T08:23:41.630Z,20.17
2023-02-11T08:28:47.239Z,18.05
2023-02-11T08:33:50.314Z,19.73
2023-02-11T08:39:08.535Z,17.45
2023-02-11T08:44:13.693Z,20.75
2023-02-11T08:49:17.114Z,19.60
2023-02-11T08:54:20.567Z,17.83
2023-02-11T08:59:27.053Z,18.92
2023-02-11T09:04:31.026Z,19.23
2023-02-11T09:09:34.661Z,17.88
2023-02-11T09:14:39.661Z,19.35
2023-02-11T09:19:42.932Z,16.13
2023-02-11T09:24:46.614Z,18.92
2023-02-11T09:29:51.847Z,19.15
2023-02-11T09:34:56.050Z,18.90
2023-02-11T09:39:59.422Z,15.38
2023-02-11T09:45:04.963Z,15.48
2023-02-11T09:50:12.065Z,16.02
2023-02-11T09:55:20.105Z,12.32
2023-02-11T10:00:27.152Z,16.92
2023-02-11T10:05:43.882Z,17.58
2023-02-11T10:10:52.829Z,17.85
2023-02-11T10:16:00.636Z,15.73
2023-02-11T10:21:11.119Z,14.38
2023-02-11T10:26:16.052Z,13.93
2023-02-11T10:31:23.204Z,12.30
2023-02-11T10:36:29.493Z,14.13
2023-02-11T10:41:36.400Z,9.85
2023-02-11T10:46:41.435Z,13.23
2023-02-11T10:51:45.022Z,13.25
2023-02-11T10:56:50.877Z,13.88
2023-02-11T11:01:59.617Z,12.07
2023-02-11T11:07:14.042Z,14.27
2023-02-11T11:12:28.801Z,12.82
2023-02-11T11:17:34.315Z,14.60
2023-02-11T11:22:39.082Z,12.82
2023-02-11T11:27:44.448Z,9.43
2023-02-11T11:32:49.055Z,10.23
2023-02-11T11:37:55.389Z,14.40
2023-02-11T11:43:07.438Z,13.45
2023-02-11T11:48:15.022Z,11.70
2023-02-11T11:53:21.946Z,15.02
2023-02-11T11:58:26.237Z,12.05
2023-02-11T12:03:45.137Z,12.88
2023-02-11T12:08:56.051Z,13.32
2023-02-11T12:14:05.486Z,13.70
2023-02-11T12:19:35.196Z,13.50
2023-02-11T12:24:54.257Z,10.07
2023-02-11T12:30:03.832Z,11.53
2023-02-11T12:35:24.029Z,12.43
2023-02-11T12:40:32.399Z,11.65
2023-02-11T12:45:46.726Z,12.10
2023-02-11T12:50:57.981Z,14.38
2023-02-11T12:56:04.611Z,11.65
2023-02-11T13:01:09.941Z,13.57
2023-02-11T13:06:16.302Z,13.15
2023-02-11T13:11:21.545Z,14.40
2023-02-11T13:16:32.551Z,13.88
2023-02-11T13:21:44.156Z,13.65
2023-02-11T13:26:50.624Z,13.65
2023-02-11T13:31:57.586Z,12.80
2023-02-11T13:37:02.908Z,12.85
2023-02-11T13:42:06.386Z,12.63
2023-02-11T13:47:16.028Z,14.40
2023-02-11T13:52:26.904Z,13.82
2023-02-11T13:57:39.306Z,10.43
2023-02-11T14:03:06.104Z,14.82
2023-02-11T14:08:37.577Z,14.73
2023-02-11T14:14:16.475Z,13.68
2023-02-11T14:19:32.663Z,12.70
2023-02-11T14:24:50.123Z,12.70
2023-02-11T14:30:43.003Z,14.48
2023-02-11T14:35:55.628Z,14.10
2023-02-11T14:41:03.696Z,14.80
2023-02-11T14:46:07.813Z,14.68
2023-02-11T14:51:12.416Z,13.50
2023-02-11T14:56:22.745Z,14.90
2023-02-11T15:01:29.365Z,15.02
2023-02-11T15:06:34.612Z,14.70
2023-02-11T15:11:42.544Z,14.40
2023-02-11T15:16:46.423Z,14.63
2023-02-11T15:21:50.890Z,14.30
2023-02-11T15:27:00.229Z,14.18
2023-02-11T15:32:08.244Z,11.73
2023-02-11T15:37:14.111Z,14.05
2023-02-11T15:42:20.502Z,14.25
2023-02-11T15:47:24.350Z,13.82
2023-02-11T15:52:29.020Z,14.10
2023-02-11T15:57:33.929Z,13.93
2023-02-11T16:02:47.082Z,13.75
2023-02-11T16:07:51.832Z,15.80
2023-02-11T16:13:00.719Z,16.35
2023-02-11T16:18:04.726Z,16.07
2023-02-11T16:23:08.366Z,17.05
2023-02-11T16:28:15.057Z,15.45
2023-02-11T16:33:19.289Z,17.45
2023-02-11T16:38:26.128Z,19.40
2023-02-11T16:43:31.194Z,19.00
2023-02-11T16:48:35.164Z,18.50
2023-02-11T16:53:38.594Z,15.88
2023-02-11T16:58:43.481Z,19.38
2023-02-11T17:03:46.692Z,16.25
2023-02-11T17:08:50.414Z,19.33
2023-02-11T17:13:56.157Z,18.55
2023-02-11T17:19:00.632Z,20.75
2023-02-11T17:24:08.930Z,20.08
2023-02-11T17:29:17.339Z,20.00
2023-02-11T17:34:22.487Z,19.17
2023-02-11T17:39:33.780Z,19.17
2023-02-11T17:44:38.876Z,20.20
2023-02-11T17:49:42.593Z,20.27
2023-02-11T17:54:47.056Z,20.15
2023-02-11T17:59:52.564Z,19.35
2023-02-11T18:04:57.726Z,20.92
2023-02-11T18:10:02.168Z,19.85
2023-02-11T18:15:10.637Z,20.90
2023-02-11T18:20:15.038Z,20.75
2023-02-11T18:25:18.867Z,19.90
2023-02-11T18:30:24.368Z,21.48
2023-02-11T18:35:36.938Z,20.33
2023-02-11T18:40:48.176Z,19.60
2023-02-11T18:45:55.186Z,18.40
2023-02-11T18:50:58.994Z,20.38
2023-02-11T18:56:02.903Z,20.40
2023-02-11T19:01:15.240Z,18.45
2023-02-11T19:06:20.028Z,19.73
2023-02-11T19:11:43.703Z,20.08
2023-02-11T19:16:51.314Z,20.33
2023-02-11T19:21:58.891Z,19.00
2023-02-11T19:27:04.285Z,19.60
2023-02-11T19:32:09.721Z,19.00
2023-02-11T19:37:13.953Z,19.25
2023-02-11T19:42:17.324Z,20.05
2023-02-11T19:47:27.857Z,19.90
2023-02-11T19:52:31.584Z,19.17
2023-02-11T19:57:35.031Z,18.65
2023-02-11T20:02:41.167Z,19.85
2023-02-11T20:07:46.582Z,18.80
2023-02-11T20:12:50.327Z,19.23
2023-02-11T20:17:56.573Z,19.60
2023-02-11T20:22:59.980Z,20.60
2023-02-11T20:28:03.842Z,20.17
2023-02-11T20:33:09.827Z,21.02
2023-02-11T20:38:16.982Z,20.77
2023-02-11T20:43:21.172Z,18.58
2023-02-11T20:48:26.319Z,21.10
2023-02-11T20:53:30.452Z,19.58
2023-02-11T20:58:34.332Z,20.17
2023-02-11T21:03:40.598Z,20.15
2023-02-11T21:08:44.385Z,22.30
2023-02-11T21:13:48.731Z,20.17
2023-02-11T21:18:53.996Z,20.17
2023-02-11T21:23:58.678Z,21.00
2023-02-11T21:29:02.932Z,20.77
2023-02-11T21:34:10.573Z,20.73
2023-02-11T21:39:16.280Z,19.90
2023-02-11T21:44:20.194Z,19.63
2023-02-11T21:49:25.953Z,21.05
2023-02-11T21:54:32.132Z,21.48
2023-02-11T21:59:35.697Z,21.77
2023-02-11T22:04:41.536Z,21.02
2023-02-11T22:09:45.328Z,22.00
2023-02-11T22:14:48.944Z,21.55
2023-02-11T22:19:54.117Z,22.77
2023-02-11T22:25:00.305Z,22.45
2023-02-11T22:30:07.500Z,21.85
2023-02-11T22:35:13.178Z,19.05
2023-02-11T22:40:18.467Z,19.30
2023-02-11T22:45:36.687Z,21.15
2023-02-11T22:50:44.659Z,22.80
2023-02-11T22:55:48.447Z,21.52
2023-02-11T23:00:52.806Z,22.95
2023-02-11T23:06:06.258Z,23.23
2023-02-11T23:11:13.126Z,21.60
2023-02-11T23:16:18.039Z,20.02
2023-02-11T23:21:24.005Z,20.83
2023-02-11T23:26:27.415Z,20.60
2023-02-11T23:31:34.069Z,21.33
2023-02-11T23:36:39.192Z,22.77
2023-02-11T23:41:43.782Z,21.88
2023-02-11T23:46:47.488Z,20.42
2023-02-11T23:51:53.659Z,21.10
2023-02-11T23:56:57.786Z,21.00
